sensor_id;sensor_type;location;lat;lon;timestamp;pressure;altitude;pressure_sealevel;temperature;humidity
11971;BME280;6045;42.682;23.294;2024-02-28T00:02:17;94963.69;;;10.99;68.46
11971;BME280;6045;42.682;23.294;2024-02-28T00:04:44;94956.91;;;10.96;68.34
11971;BME280;6045;42.682;23.294;2024-02-28T00:07:10;94959.59;;;10.96;68.85
11971;BME280;6045;42.682;23.294;2024-02-28T00:09:37;94959.59;;;10.96;68.62
11971;BME280;6045;42.682;23.294;2024-02-28T00:12:05;94969.84;;;10.99;68.47
11971;BME280;6045;42.682;23.294;2024-02-28T00:14:33;94969.38;;;11.02;68.34
11971;BME280;6045;42.682;23.294;2024-02-28T00:17:00;94970.59;;;11.07;68.43
11971;BME280;6045;42.682;23.294;2024-02-28T00:19:28;94971.75;;;11.11;68.04
11971;BME280;6045;42.682;23.294;2024-02-28T00:21:55;94970.94;;;11.10;67.86
11971;BME280;6045;42.682;23.294;2024-02-28T00:24:22;94968.66;;;11.14;67.84
11971;BME280;6045;42.682;23.294;2024-02-28T00:26:49;94970.25;;;11.15;67.80
11971;BME280;6045;42.682;23.294;2024-02-28T00:29:16;94967.81;;;11.13;67.37
11971;BME280;6045;42.682;23.294;2024-02-28T00:31:49;94970.72;;;11.12;67.55
11971;BME280;6045;42.682;23.294;2024-02-28T00:34:17;94970.72;;;11.12;67.68
11971;BME280;6045;42.682;23.294;2024-02-28T00:36:47;94964.19;;;11.08;67.34
11971;BME280;6045;42.682;23.294;2024-02-28T00:39:16;94964.84;;;11.03;67.50
11971;BME280;6045;42.682;23.294;2024-02-28T00:41:45;94966.19;;;10.94;67.58
11971;BME280;6045;42.682;23.294;2024-02-28T00:44:21;94962.56;;;10.88;67.81
11971;BME280;6045;42.682;23.294;2024-02-28T00:53:30;94965.91;;;10.66;68.66
11971;BME280;6045;42.682;23.294;2024-02-28T01:02:37;94973.75;;;10.61;68.88
11971;BME280;6045;42.682;23.294;2024-02-28T01:05:05;94978.50;;;10.59;68.91
11971;BME280;6045;42.682;23.294;2024-02-28T01:07:36;94980.19;;;10.53;68.73
11971;BME280;6045;42.682;23.294;2024-02-28T01:10:06;94978.78;;;10.51;68.82
11971;BME280;6045;42.682;23.294;2024-02-28T01:12:33;94975.31;;;10.50;68.76
11971;BME280;6045;42.682;23.294;2024-02-28T01:15:05;94978.00;;;10.50;69.14
11971;BME280;6045;42.682;23.294;2024-02-28T01:17:33;94971.00;;;10.49;69.01
11971;BME280;6045;42.682;23.294;2024-02-28T01:20:02;94977.81;;;10.45;68.61
11971;BME280;6045;42.682;23.294;2024-02-28T01:22:29;94972.69;;;10.44;68.85
11971;BME280;6045;42.682;23.294;2024-02-28T01:24:58;94975.66;;;10.36;69.30
11971;BME280;6045;42.682;23.294;2024-02-28T01:27:25;94974.41;;;10.38;69.20
11971;BME280;6045;42.682;23.294;2024-02-28T01:29:52;94974.91;;;10.28;69.29
11971;BME280;6045;42.682;23.294;2024-02-28T01:32:24;94980.84;;;10.30;69.41
11971;BME280;6045;42.682;23.294;2024-02-28T01:34:51;94983.69;;;10.04;69.70
11971;BME280;6045;42.682;23.294;2024-02-28T01:37:20;94984.75;;;9.97;70.29
11971;BME280;6045;42.682;23.294;2024-02-28T01:39:47;94989.38;;;9.83;70.89
11971;BME280;6045;42.682;23.294;2024-02-28T01:42:14;94999.41;;;9.88;71.03
11971;BME280;6045;42.682;23.294;2024-02-28T01:44:50;94998.59;;;9.87;71.19
11971;BME280;6045;42.682;23.294;2024-02-28T01:47:17;94994.84;;;9.95;70.95
11971;BME280;6045;42.682;23.294;2024-02-28T01:49:46;94993.19;;;10.00;70.83
11971;BME280;6045;42.682;23.294;2024-02-28T01:52:13;94999.13;;;10.02;70.96
11971;BME280;6045;42.682;23.294;2024-02-28T01:54:42;94988.19;;;10.04;70.68
11971;BME280;6045;42.682;23.294;2024-02-28T01:57:09;94995.56;;;10.08;70.20
11971;BME280;6045;42.682;23.294;2024-02-28T01:59:37;94999.66;;;10.11;70.34
11971;BME280;6045;42.682;23.294;2024-02-28T02:02:04;95003.38;;;10.10;70.41
11971;BME280;6045;42.682;23.294;2024-02-28T02:04:31;94996.63;;;10.07;70.45
11971;BME280;6045;42.682;23.294;2024-02-28T02:07:00;94995.38;;;10.10;70.50
11971;BME280;6045;42.682;23.294;2024-02-28T02:09:29;94992.28;;;10.13;70.29
11971;BME280;6045;42.682;23.294;2024-02-28T02:11:58;94987.56;;;10.15;69.88
11971;BME280;6045;42.682;23.294;2024-02-28T02:14:24;94993.03;;;10.20;70.10
11971;BME280;6045;42.682;23.294;2024-02-28T02:16:51;94989.09;;;10.22;69.81
11971;BME280;6045;42.682;23.294;2024-02-28T02:19:18;94986.66;;;10.21;71.40
11971;BME280;6045;42.682;23.294;2024-02-28T02:21:49;94994.69;;;10.21;70.51
11971;BME280;6045;42.682;23.294;2024-02-28T02:24:20;94985.03;;;10.20;70.17
11971;BME280;6045;42.682;23.294;2024-02-28T02:26:47;94993.25;;;10.18;70.53
11971;BME280;6045;42.682;23.294;2024-02-28T02:29:17;94988.16;;;10.17;70.79
11971;BME280;6045;42.682;23.294;2024-02-28T02:31:43;94987.75;;;10.13;70.51
11971;BME280;6045;42.682;23.294;2024-02-28T02:34:10;94986.31;;;10.11;70.99
11971;BME280;6045;42.682;23.294;2024-02-28T02:36:38;94986.34;;;10.04;72.69
11971;BME280;6045;42.682;23.294;2024-02-28T02:39:05;95000.09;;;10.08;72.99
11971;BME280;6045;42.682;23.294;2024-02-28T02:41:34;94994.59;;;10.03;72.26
11971;BME280;6045;42.682;23.294;2024-02-28T02:44:01;94993.53;;;10.04;71.89
11971;BME280;6045;42.682;23.294;2024-02-28T02:46:28;95003.41;;;10.03;71.26
11971;BME280;6045;42.682;23.294;2024-02-28T02:48:55;95002.59;;;10.03;71.74
11971;BME280;6045;42.682;23.294;2024-02-28T02:51:22;94987.59;;;10.02;71.00
11971;BME280;6045;42.682;23.294;2024-02-28T02:53:49;94988.44;;;10.02;71.27
11971;BME280;6045;42.682;23.294;2024-02-28T02:56:16;94995.03;;;10.00;71.00
11971;BME280;6045;42.682;23.294;2024-02-28T02:58:44;94991.34;;;10.01;70.98
11971;BME280;6045;42.682;23.294;2024-02-28T03:01:11;94990.28;;;10.02;71.11
11971;BME280;6045;42.682;23.294;2024-02-28T03:03:38;95000.13;;;10.01;71.99
11971;BME280;6045;42.682;23.294;2024-02-28T03:06:05;94997.69;;;10.00;71.40
11971;BME280;6045;42.682;23.294;2024-02-28T03:08:33;94998.34;;;9.95;71.98
11971;BME280;6045;42.682;23.294;2024-02-28T03:11:00;94995.03;;;10.00;71.75
11971;BME280;6045;42.682;23.294;2024-02-28T03:13:29;94999.75;;;9.98;71.96
11971;BME280;6045;42.682;23.294;2024-02-28T03:15:58;94994.19;;;9.99;71.58
11971;BME280;6045;42.682;23.294;2024-02-28T03:18:25;94998.50;;;10.00;71.43
11971;BME280;6045;42.682;23.294;2024-02-28T03:20:52;94997.69;;;10.00;71.40
11971;BME280;6045;42.682;23.294;2024-02-28T03:23:19;95000.78;;;9.97;71.72
11971;BME280;6045;42.682;23.294;2024-02-28T03:25:46;95007.84;;;9.91;71.85
11971;BME280;6045;42.682;23.294;2024-02-28T03:28:13;94999.41;;;9.88;72.06
11971;BME280;6045;42.682;23.294;2024-02-28T03:30:40;95005.19;;;9.85;71.94
11971;BME280;6045;42.682;23.294;2024-02-28T03:33:08;95001.91;;;9.83;72.10
11971;BME280;6045;42.682;23.294;2024-02-28T03:35:35;95009.31;;;9.81;71.90
11971;BME280;6045;42.682;23.294;2024-02-28T03:38:02;95006.47;;;9.76;72.08
11971;BME280;6045;42.682;23.294;2024-02-28T03:40:29;95010.63;;;9.72;72.77
11971;BME280;6045;42.682;23.294;2024-02-28T03:42:56;95019.22;;;9.74;73.36
11971;BME280;6045;42.682;23.294;2024-02-28T03:45:28;95015.72;;;9.73;72.86
11971;BME280;6045;42.682;23.294;2024-02-28T03:47:55;95014.31;;;9.71;72.45
11971;BME280;6045;42.682;23.294;2024-02-28T03:50:24;95017.19;;;9.69;72.85
11971;BME280;6045;42.682;23.294;2024-02-28T03:52:51;95015.94;;;9.72;72.36
11971;BME280;6045;42.682;23.294;2024-02-28T03:55:18;95021.13;;;9.67;72.35
11971;BME280;6045;42.682;23.294;2024-02-28T03:57:47;95023.78;;;9.67;72.65
11971;BME280;6045;42.682;23.294;2024-02-28T04:00:14;95018.88;;;9.63;72.57
11971;BME280;6045;42.682;23.294;2024-02-28T04:02:41;95021.53;;;9.63;72.69
11971;BME280;6045;42.682;23.294;2024-02-28T04:05:08;95018.06;;;9.63;72.25
11971;BME280;6045;42.682;23.294;2024-02-28T04:07:37;95018.25;;;9.61;72.50
11971;BME280;6045;42.682;23.294;2024-02-28T04:10:04;95013.97;;;9.60;72.90
11971;BME280;6045;42.682;23.294;2024-02-28T04:12:32;95005.75;;;9.62;72.21
11971;BME280;6045;42.682;23.294;2024-02-28T04:14:58;95010.47;;;9.60;72.44
11971;BME280;6045;42.682;23.294;2024-02-28T04:17:25;95005.38;;;9.58;72.29
11971;BME280;6045;42.682;23.294;2024-02-28T04:19:52;95007.41;;;9.56;74.02
11971;BME280;6045;42.682;23.294;2024-02-28T04:22:18;95010.38;;;9.42;74.53
11971;BME280;6045;42.682;23.294;2024-02-28T04:24:46;95015.69;;;9.48;74.27
11971;BME280;6045;42.682;23.294;2024-02-28T04:27:13;95010.34;;;9.48;73.70
11971;BME280;6045;42.682;23.294;2024-02-28T04:29:41;95008.50;;;9.49;73.21
11971;BME280;6045;42.682;23.294;2024-02-28T04:32:07;95004.78;;;9.50;73.16
11971;BME280;6045;42.682;23.294;2024-02-28T04:34:36;95003.75;;;9.51;72.95
11971;BME280;6045;42.682;23.294;2024-02-28T04:37:03;95012.78;;;9.50;72.98
11971;BME280;6045;42.682;23.294;2024-02-28T04:39:30;95010.13;;;9.50;73.13
11971;BME280;6045;42.682;23.294;2024-02-28T04:41:59;95014.25;;;9.46;74.09
11971;BME280;6045;42.682;23.294;2024-02-28T04:44:27;95006.06;;;9.41;73.55
11971;BME280;6045;42.682;23.294;2024-02-28T04:46:54;95013.66;;;9.37;73.58
11971;BME280;6045;42.682;23.294;2024-02-28T04:49:21;95010.56;;;9.40;73.59
11971;BME280;6045;42.682;23.294;2024-02-28T04:51:48;95017.56;;;9.41;73.73
11971;BME280;6045;42.682;23.294;2024-02-28T04:54:15;95020.84;;;9.43;73.67
11971;BME280;6045;42.682;23.294;2024-02-28T04:56:42;95021.06;;;9.42;73.88
11971;BME280;6045;42.682;23.294;2024-02-28T04:59:12;95026.81;;;9.39;73.59
11971;BME280;6045;42.682;23.294;2024-02-28T05:01:39;95027.81;;;9.38;73.43
11971;BME280;6045;42.682;23.294;2024-02-28T05:04:08;95031.53;;;9.30;74.09
11971;BME280;6045;42.682;23.294;2024-02-28T05:06:35;95030.53;;;9.31;74.02
11971;BME280;6045;42.682;23.294;2024-02-28T05:09:02;95027.84;;;9.31;74.40
11971;BME280;6045;42.682;23.294;2024-02-28T05:11:28;95028.47;;;9.33;74.82
11971;BME280;6045;42.682;23.294;2024-02-28T05:13:55;95037.28;;;9.34;74.11
11971;BME280;6045;42.682;23.294;2024-02-28T05:16:23;95041.59;;;9.35;75.09
11971;BME280;6045;42.682;23.294;2024-02-28T05:18:50;95029.53;;;10.57;95.00
11971;BME280;6045;42.682;23.294;2024-02-28T05:21:17;95036.81;;;10.68;80.41
11971;BME280;6045;42.682;23.294;2024-02-28T05:23:44;95049.41;;;11.04;83.05
11971;BME280;6045;42.682;23.294;2024-02-28T05:26:11;95046.63;;;11.83;79.12
11971;BME280;6045;42.682;23.294;2024-02-28T05:28:38;95048.41;;;12.30;70.94
11971;BME280;6045;42.682;23.294;2024-02-28T05:31:20;95052.53;;;12.68;66.87
11971;BME280;6045;42.682;23.294;2024-02-28T05:33:50;95044.06;;;13.06;64.98
11971;BME280;6045;42.682;23.294;2024-02-28T05:36:17;95053.03;;;13.23;63.33
11971;BME280;6045;42.682;23.294;2024-02-28T05:38:44;95068.66;;;13.49;63.32
11971;BME280;6045;42.682;23.294;2024-02-28T05:41:11;95067.06;;;13.76;61.66
11971;BME280;6045;42.682;23.294;2024-02-28T05:43:40;95071.34;;;13.89;60.79
11971;BME280;6045;42.682;23.294;2024-02-28T05:46:07;95074.31;;;14.04;59.86
11971;BME280;6045;42.682;23.294;2024-02-28T05:48:37;95072.59;;;14.26;58.71
11971;BME280;6045;42.682;23.294;2024-02-28T05:51:05;95078.09;;;14.31;58.26
11971;BME280;6045;42.682;23.294;2024-02-28T05:53:32;95072.03;;;14.24;60.64
11971;BME280;6045;42.682;23.294;2024-02-28T05:56:01;95085.88;;;14.04;60.65
11971;BME280;6045;42.682;23.294;2024-02-28T05:58:28;95075.53;;;13.96;60.41
11971;BME280;6045;42.682;23.294;2024-02-28T07:14:22;95091.97;;;19.93;42.20
11971;BME280;6045;42.682;23.294;2024-02-28T07:16:49;95101.03;;;19.28;44.30
11971;BME280;6045;42.682;23.294;2024-02-28T07:19:17;95106.19;;;19.44;44.61
11971;BME280;6045;42.682;23.294;2024-02-28T07:21:44;95103.44;;;18.94;44.84
11971;BME280;6045;42.682;23.294;2024-02-28T07:24:11;95107.47;;;18.61;51.29
11971;BME280;6045;42.682;23.294;2024-02-28T07:26:39;95107.50;;;18.76;47.34
11971;BME280;6045;42.682;23.294;2024-02-28T07:29:07;95111.16;;;18.40;46.84
11971;BME280;6045;42.682;23.294;2024-02-28T07:31:35;95108.03;;;18.58;46.19
11971;BME280;6045;42.682;23.294;2024-02-28T07:34:02;95115.75;;;18.29;46.09
11971;BME280;6045;42.682;23.294;2024-02-28T07:36:30;95105.03;;;18.60;52.91
11971;BME280;6045;42.682;23.294;2024-02-28T07:38:57;95113.50;;;19.19;46.03
11971;BME280;6045;42.682;23.294;2024-02-28T07:41:24;95108.91;;;19.24;48.11
11971;BME280;6045;42.682;23.294;2024-02-28T07:43:50;95103.03;;;20.16;42.91
11971;BME280;6045;42.682;23.294;2024-02-28T07:46:17;95103.75;;;20.47;42.19
11971;BME280;6045;42.682;23.294;2024-02-28T07:48:46;95103.75;;;20.42;43.00
11971;BME280;6045;42.682;23.294;2024-02-28T07:51:13;95107.31;;;20.91;41.27
11971;BME280;6045;42.682;23.294;2024-02-28T07:53:40;95103.56;;;21.21;40.17
11971;BME280;6045;42.682;23.294;2024-02-28T07:56:15;95108.84;;;21.41;39.61
11971;BME280;6045;42.682;23.294;2024-02-28T07:58:42;95107.97;;;21.46;39.25
11971;BME280;6045;42.682;23.294;2024-02-28T08:01:09;95105.38;;;20.92;39.20
11971;BME280;6045;42.682;23.294;2024-02-28T08:03:36;95110.47;;;21.42;44.77
11971;BME280;6045;42.682;23.294;2024-02-28T08:06:05;95108.91;;;22.17;42.91
11971;BME280;6045;42.682;23.294;2024-02-28T08:08:34;95103.69;;;23.05;41.56
11971;BME280;6045;42.682;23.294;2024-02-28T08:11:01;95099.44;;;23.96;39.87
11971;BME280;6045;42.682;23.294;2024-02-28T08:13:28;95103.16;;;24.32;37.47
11971;BME280;6045;42.682;23.294;2024-02-28T08:15:55;95099.63;;;23.86;34.41
11971;BME280;6045;42.682;23.294;2024-02-28T08:18:22;95100.63;;;23.26;35.94
11971;BME280;6045;42.682;23.294;2024-02-28T08:20:49;95091.91;;;23.61;41.61
11971;BME280;6045;42.682;23.294;2024-02-28T08:23:19;95098.84;;;23.99;39.96
11971;BME280;6045;42.682;23.294;2024-02-28T08:25:46;95091.25;;;23.96;38.18
11971;BME280;6045;42.682;23.294;2024-02-28T08:28:13;95092.41;;;23.63;35.22
11971;BME280;6045;42.682;23.294;2024-02-28T08:30:40;95098.69;;;22.94;34.82
11971;BME280;6045;42.682;23.294;2024-02-28T08:33:07;95094.44;;;22.22;36.47
11971;BME280;6045;42.682;23.294;2024-02-28T08:35:36;95092.38;;;21.28;38.85
11971;BME280;6045;42.682;23.294;2024-02-28T08:38:03;95085.88;;;21.24;38.69
11971;BME280;6045;42.682;23.294;2024-02-28T08:40:31;95094.97;;;21.43;39.09
11971;BME280;6045;42.682;23.294;2024-02-28T08:42:58;95086.16;;;21.85;38.58
11971;BME280;6045;42.682;23.294;2024-02-28T08:45:25;95088.81;;;22.61;37.13
11971;BME280;6045;42.682;23.294;2024-02-28T08:47:52;95094.31;;;23.11;36.35
11971;BME280;6045;42.682;23.294;2024-02-28T08:50:19;95078.41;;;23.97;34.64
11971;BME280;6045;42.682;23.294;2024-02-28T08:52:46;95081.63;;;23.21;35.36
11971;BME280;6045;42.682;23.294;2024-02-28T08:55:13;95081.72;;;22.36;36.23
11971;BME280;6045;42.682;23.294;2024-02-28T08:57:45;95080.63;;;22.37;36.86
11971;BME280;6045;42.682;23.294;2024-02-28T09:00:13;95078.19;;;22.78;37.25
11971;BME280;6045;42.682;23.294;2024-02-28T09:02:41;95076.50;;;22.63;36.46
11971;BME280;6045;42.682;23.294;2024-02-28T09:05:08;95081.28;;;22.29;37.61
11971;BME280;6045;42.682;23.294;2024-02-28T09:07:36;95083.22;;;22.23;37.24
11971;BME280;6045;42.682;23.294;2024-02-28T09:10:03;95080.84;;;22.83;36.27
11971;BME280;6045;42.682;23.294;2024-02-28T09:12:30;95082.44;;;23.21;35.71
11971;BME280;6045;42.682;23.294;2024-02-28T09:14:58;95080.78;;;23.57;34.94
11971;BME280;6045;42.682;23.294;2024-02-28T09:17:25;95079.13;;;24.02;34.01
11971;BME280;6045;42.682;23.294;2024-02-28T09:19:53;95086.63;;;23.32;35.36
11971;BME280;6045;42.682;23.294;2024-02-28T09:22:20;95089.44;;;23.08;35.98
11971;BME280;6045;42.682;23.294;2024-02-28T09:24:47;95079.75;;;22.65;37.07
11971;BME280;6045;42.682;23.294;2024-02-28T09:27:14;95076.00;;;22.98;36.72
11971;BME280;6045;42.682;23.294;2024-02-28T09:29:41;95070.03;;;23.47;35.63
11971;BME280;6045;42.682;23.294;2024-02-28T09:32:09;95075.28;;;23.25;36.09
11971;BME280;6045;42.682;23.294;2024-02-28T09:34:37;95070.00;;;22.96;35.56
11971;BME280;6045;42.682;23.294;2024-02-28T09:37:04;95064.47;;;22.22;37.07
11971;BME280;6045;42.682;23.294;2024-02-28T09:39:31;95065.00;;;22.00;37.81
11971;BME280;6045;42.682;23.294;2024-02-28T09:41:58;95060.59;;;22.28;38.41
11971;BME280;6045;42.682;23.294;2024-02-28T09:44:25;95056.16;;;22.74;37.19
11971;BME280;6045;42.682;23.294;2024-02-28T09:46:53;95058.00;;;23.48;44.92
11971;BME280;6045;42.682;23.294;2024-02-28T09:49:22;95044.38;;;24.84;39.74
11971;BME280;6045;42.682;23.294;2024-02-28T09:51:52;95052.69;;;25.59;35.97
11971;BME280;6045;42.682;23.294;2024-02-28T09:54:19;95043.88;;;24.82;33.38
11971;BME280;6045;42.682;23.294;2024-02-28T09:56:47;95044.72;;;24.56;33.68
11971;BME280;6045;42.682;23.294;2024-02-28T09:59:15;95048.69;;;23.95;33.99
11971;BME280;6045;42.682;23.294;2024-02-28T10:01:44;95048.13;;;23.52;33.75
11971;BME280;6045;42.682;23.294;2024-02-28T10:04:13;95047.91;;;22.79;35.43
11971;BME280;6045;42.682;23.294;2024-02-28T10:06:42;95046.66;;;21.58;37.21
11971;BME280;6045;42.682;23.294;2024-02-28T10:09:09;95035.19;;;20.99;38.24
11971;BME280;6045;42.682;23.294;2024-02-28T10:11:36;95045.63;;;20.87;38.66
11971;BME280;6045;42.682;23.294;2024-02-28T10:14:03;95042.97;;;20.82;39.50
11971;BME280;6045;42.682;23.294;2024-02-28T10:16:30;95043.31;;;20.70;38.90
11971;BME280;6045;42.682;23.294;2024-02-28T10:18:57;95031.13;;;20.63;38.79
11971;BME280;6045;42.682;23.294;2024-02-28T10:21:24;95027.97;;;20.51;39.72
11971;BME280;6045;42.682;23.294;2024-02-28T10:23:53;95022.22;;;20.52;39.13
11971;BME280;6045;42.682;23.294;2024-02-28T10:26:20;95028.56;;;20.37;39.99
11971;BME280;6045;42.682;23.294;2024-02-28T10:28:47;95030.00;;;20.20;40.74
11971;BME280;6045;42.682;23.294;2024-02-28T10:31:14;95015.91;;;20.18;40.19
11971;BME280;6045;42.682;23.294;2024-02-28T10:33:41;95010.31;;;19.99;41.73
11971;BME280;6045;42.682;23.294;2024-02-28T10:36:09;95015.63;;;20.14;40.50
11971;BME280;6045;42.682;23.294;2024-02-28T10:38:37;95012.38;;;20.61;40.77
11971;BME280;6045;42.682;23.294;2024-02-28T10:41:05;95003.44;;;21.28;39.67
11971;BME280;6045;42.682;23.294;2024-02-28T10:43:33;95004.16;;;22.10;37.67
11971;BME280;6045;42.682;23.294;2024-02-28T10:46:01;94993.66;;;23.29;35.22
11971;BME280;6045;42.682;23.294;2024-02-28T10:48:28;94994.25;;;23.99;34.63
11971;BME280;6045;42.682;23.294;2024-02-28T10:50:55;94995.34;;;24.74;32.49
11971;BME280;6045;42.682;23.294;2024-02-28T10:53:25;94984.09;;;25.42;31.64
11971;BME280;6045;42.682;23.294;2024-02-28T10:56:01;94989.84;;;25.32;31.24
11971;BME280;6045;42.682;23.294;2024-02-28T10:58:34;94986.81;;;24.76;32.73
11971;BME280;6045;42.682;23.294;2024-02-28T11:01:02;94988.78;;;24.75;31.97
11971;BME280;6045;42.682;23.294;2024-02-28T11:03:30;94992.34;;;25.20;31.00
11971;BME280;6045;42.682;23.294;2024-02-28T11:05:57;94991.22;;;24.27;30.98
11971;BME280;6045;42.682;23.294;2024-02-28T11:08:27;94986.44;;;23.05;33.80
11971;BME280;6045;42.682;23.294;2024-02-28T11:10:55;94969.78;;;23.53;33.40
11971;BME280;6045;42.682;23.294;2024-02-28T11:13:22;94972.91;;;23.87;32.38
11971;BME280;6045;42.682;23.294;2024-02-28T11:15:51;94971.69;;;24.20;31.61
11971;BME280;6045;42.682;23.294;2024-02-28T11:18:18;94965.81;;;24.63;31.84
11971;BME280;6045;42.682;23.294;2024-02-28T11:20:48;94960.69;;;24.47;31.26
11971;BME280;6045;42.682;23.294;2024-02-28T11:23:17;94945.66;;;24.36;30.33
11971;BME280;6045;42.682;23.294;2024-02-28T11:25:44;94950.19;;;24.77;29.67
11971;BME280;6045;42.682;23.294;2024-02-28T11:28:13;94945.31;;;24.74;30.92
11971;BME280;6045;42.682;23.294;2024-02-28T11:30:41;94947.34;;;25.35;28.77
11971;BME280;6045;42.682;23.294;2024-02-28T11:33:09;94948.00;;;26.10;28.34
11971;BME280;6045;42.682;23.294;2024-02-28T11:35:37;94947.31;;;26.87;26.71
11971;BME280;6045;42.682;23.294;2024-02-28T11:38:06;94941.47;;;27.14;26.70
11971;BME280;6045;42.682;23.294;2024-02-28T11:40:35;94938.94;;;27.64;26.50
11971;BME280;6045;42.682;23.294;2024-02-28T11:43:02;94941.06;;;28.05;25.32
11971;BME280;6045;42.682;23.294;2024-02-28T11:45:30;94939.16;;;28.46;24.50
11971;BME280;6045;42.682;23.294;2024-02-28T11:47:56;94943.41;;;28.65;24.71
11971;BME280;6045;42.682;23.294;2024-02-28T11:50:25;94935.72;;;29.44;23.92
11971;BME280;6045;42.682;23.294;2024-02-28T11:52:55;94933.94;;;28.54;23.99
11971;BME280;6045;42.682;23.294;2024-02-28T11:55:24;94924.44;;;27.55;25.50
11971;BME280;6045;42.682;23.294;2024-02-28T11:57:51;94923.09;;;27.99;24.65
11971;BME280;6045;42.682;23.294;2024-02-28T12:00:18;94928.53;;;28.36;24.16
11971;BME280;6045;42.682;23.294;2024-02-28T12:02:45;94919.97;;;28.38;24.72
11971;BME280;6045;42.682;23.294;2024-02-28T12:05:12;94922.59;;;28.05;25.28
11971;BME280;6045;42.682;23.294;2024-02-28T12:07:43;94918.66;;;27.39;26.18
11971;BME280;6045;42.682;23.294;2024-02-28T12:10:10;94914.94;;;27.44;26.17
11971;BME280;6045;42.682;23.294;2024-02-28T12:12:38;94904.75;;;27.36;26.96
11971;BME280;6045;42.682;23.294;2024-02-28T12:15:07;94906.72;;;27.44;26.56
11971;BME280;6045;42.682;23.294;2024-02-28T12:17:35;94902.69;;;27.79;25.09
11971;BME280;6045;42.682;23.294;2024-02-28T12:20:03;94902.22;;;27.68;25.47
11971;BME280;6045;42.682;23.294;2024-02-28T12:22:31;94893.13;;;27.30;25.95
11971;BME280;6045;42.682;23.294;2024-02-28T12:25:00;94893.47;;;27.29;25.91
11971;BME280;6045;42.682;23.294;2024-02-28T12:27:29;94899.03;;;26.43;26.13
11971;BME280;6045;42.682;23.294;2024-02-28T12:29:57;94889.06;;;26.81;26.14
11971;BME280;6045;42.682;23.294;2024-02-28T12:32:24;94886.63;;;26.63;27.32
11971;BME280;6045;42.682;23.294;2024-02-28T12:34:51;94884.53;;;26.68;27.01
11971;BME280;6045;42.682;23.294;2024-02-28T12:37:19;94885.66;;;26.93;26.92
11971;BME280;6045;42.682;23.294;2024-02-28T12:39:46;94885.56;;;25.42;27.26
11971;BME280;6045;42.682;23.294;2024-02-28T12:42:14;94882.72;;;25.17;27.76
11971;BME280;6045;42.682;23.294;2024-02-28T12:44:41;94880.44;;;24.43;29.13
11971;BME280;6045;42.682;23.294;2024-02-28T12:47:11;94883.91;;;24.35;28.57
11971;BME280;6045;42.682;23.294;2024-02-28T12:49:38;94892.13;;;23.59;29.84
11971;BME280;6045;42.682;23.294;2024-02-28T12:52:05;94881.94;;;23.37;29.99
11971;BME280;6045;42.682;23.294;2024-02-28T12:54:32;94886.94;;;23.30;30.25
11971;BME280;6045;42.682;23.294;2024-02-28T12:56:59;94876.63;;;23.27;30.95
11971;BME280;6045;42.682;23.294;2024-02-28T12:59:30;94880.63;;;23.35;31.28
11971;BME280;6045;42.682;23.294;2024-02-28T13:01:58;94878.00;;;23.43;31.13
11971;BME280;6045;42.682;23.294;2024-02-28T13:04:25;94885.69;;;23.55;31.56
11971;BME280;6045;42.682;23.294;2024-02-28T13:06:53;94877.19;;;23.43;31.96
11971;BME280;6045;42.682;23.294;2024-02-28T13:09:20;94877.88;;;22.75;32.71
11971;BME280;6045;42.682;23.294;2024-02-28T13:11:49;94889.00;;;21.91;34.65
11971;BME280;6045;42.682;23.294;2024-02-28T13:14:16;94890.50;;;21.59;34.39
11971;BME280;6045;42.682;23.294;2024-02-28T13:16:44;94890.56;;;21.54;34.79
11971;BME280;6045;42.682;23.294;2024-02-28T13:19:11;94890.63;;;21.26;36.36
11971;BME280;6045;42.682;23.294;2024-02-28T13:21:39;94886.06;;;21.21;36.66
11971;BME280;6045;42.682;23.294;2024-02-28T13:24:06;94882.06;;;21.13;37.00
11971;BME280;6045;42.682;23.294;2024-02-28T13:26:33;94881.09;;;20.71;38.25
11971;BME280;6045;42.682;23.294;2024-02-28T13:29:00;94883.75;;;20.47;38.56
11971;BME280;6045;42.682;23.294;2024-02-28T13:31:27;94882.53;;;19.91;39.63
11971;BME280;6045;42.682;23.294;2024-02-28T13:33:58;94881.81;;;19.75;39.85
11971;BME280;6045;42.682;23.294;2024-02-28T13:36:25;94883.41;;;19.76;40.29
11971;BME280;6045;42.682;23.294;2024-02-28T13:38:51;94876.91;;;19.77;40.04
11971;BME280;6045;42.682;23.294;2024-02-28T13:41:25;94877.91;;;19.91;48.21
11971;BME280;6045;42.682;23.294;2024-02-28T13:43:51;94884.78;;;20.22;43.49
11971;BME280;6045;42.682;23.294;2024-02-28T13:46:18;94886.59;;;20.37;47.11
11971;BME280;6045;42.682;23.294;2024-02-28T13:48:46;94878.72;;;20.30;48.91
11971;BME280;6045;42.682;23.294;2024-02-28T13:51:14;94871.75;;;20.24;42.70
11971;BME280;6045;42.682;23.294;2024-02-28T13:53:42;94872.88;;;20.13;46.82
11971;BME280;6045;42.682;23.294;2024-02-28T13:56:09;94874.50;;;20.14;48.01
11971;BME280;6045;42.682;23.294;2024-02-28T13:58:36;94869.69;;;20.06;43.52
11971;BME280;6045;42.682;23.294;2024-02-28T14:01:04;94873.00;;;19.93;47.36
11971;BME280;6045;42.682;23.294;2024-02-28T14:03:32;94874.91;;;19.93;45.83
11971;BME280;6045;42.682;23.294;2024-02-28T14:05:59;94873.84;;;19.89;44.99
11971;BME280;6045;42.682;23.294;2024-02-28T14:08:27;94875.00;;;19.83;46.31
11971;BME280;6045;42.682;23.294;2024-02-28T14:10:54;94871.97;;;19.89;46.78
11971;BME280;6045;42.682;23.294;2024-02-28T14:13:21;94869.97;;;20.00;46.96
11971;BME280;6045;42.682;23.294;2024-02-28T14:15:48;94873.97;;;20.12;46.78
11971;BME280;6045;42.682;23.294;2024-02-28T14:18:16;94882.59;;;20.24;47.36
11971;BME280;6045;42.682;23.294;2024-02-28T14:20:45;94877.16;;;20.19;45.39
11971;BME280;6045;42.682;23.294;2024-02-28T14:23:12;94883.78;;;20.08;42.66
11971;BME280;6045;42.682;23.294;2024-02-28T14:25:40;94879.78;;;19.52;42.57
11971;BME280;6045;42.682;23.294;2024-02-28T14:28:08;94882.72;;;18.76;42.86
11971;BME280;6045;42.682;23.294;2024-02-28T14:30:35;94877.31;;;18.56;45.36
11971;BME280;6045;42.682;23.294;2024-02-28T14:33:03;94868.66;;;18.44;44.01